createdAt,value
2019-02-11T00:03:14.636Z,5.90
2019-02-11T00:08:19.899Z,5.90
2019-02-11T00:13:25.195Z,5.80
2019-02-11T00:18:30.565Z,5.80
2019-02-11T00:23:35.888Z,5.80
2019-02-11T00:28:41.159Z,5.80
2019-02-11T00:33:46.485Z,5.80
2019-02-11T00:38:51.970Z,5.80
2019-02-11T00:43:57.344Z,5.70
2019-02-11T00:49:02.778Z,5.70
2019-02-11T00:54:08.082Z,5.70
2019-02-11T00:59:13.489Z,5.70
2019-02-11T01:04:18.822Z,5.60
2019-02-11T01:09:24.117Z,5.50
2019-02-11T01:14:29.431Z,5.50
2019-02-11T01:19:34.746Z,5.50
2019-02-11T01:24:40.211Z,5.50
2019-02-11T01:29:45.656Z,5.50
2019-02-11T01:34:50.952Z,5.50
2019-02-11T01:39:56.416Z,5.40
2019-02-11T01:45:01.728Z,5.40
2019-02-11T01:50:08.964Z,5.30
2019-02-11T01:55:14.235Z,5.30
2019-02-11T02:00:19.720Z,5.30
2019-02-11T02:05:25.131Z,5.30
2019-02-11T02:10:30.457Z,5.30
2019-02-11T02:15:35.749Z,5.30
2019-02-11T02:20:41.068Z,5.30
2019-02-11T02:25:46.341Z,5.30
2019-02-11T02:30:51.662Z,5.30
2019-02-11T02:35:57.107Z,5.30
2019-02-11T02:41:02.449Z,5.20
2019-02-11T02:46:07.852Z,5.10
2019-02-11T02:51:13.176Z,5.10
2019-02-11T02:56:18.527Z,5.10
2019-02-11T03:01:23.812Z,5.20
2019-02-11T03:06:29.094Z,5.30
2019-02-11T03:11:34.535Z,5.30
2019-02-11T03:16:39.855Z,5.40
2019-02-11T03:21:45.148Z,5.40
2019-02-11T03:26:50.451Z,5.40
2019-02-11T03:31:55.981Z,5.40
2019-02-11T03:37:01.352Z,5.40
2019-02-11T03:42:06.634Z,5.50
2019-02-11T03:47:12.001Z,5.50
2019-02-11T03:52:17.313Z,5.50
2019-02-11T03:57:22.759Z,5.50
2019-02-11T04:02:28.114Z,5.50
2019-02-11T04:07:33.539Z,5.50
2019-02-11T04:12:39.067Z,5.50
2019-02-11T04:17:44.489Z,5.60
2019-02-11T04:22:49.908Z,5.60
2019-02-11T04:27:55.363Z,5.70
2019-02-11T04:33:00.781Z,5.80
2019-02-11T04:38:06.161Z,5.80
2019-02-11T04:43:11.506Z,5.80
2019-02-11T04:48:16.815Z,5.80
2019-02-11T04:53:22.352Z,5.80
2019-02-11T04:58:27.678Z,5.90
2019-02-11T05:03:33.063Z,5.90
2019-02-11T05:08:38.506Z,6.00
2019-02-11T05:13:43.959Z,6.00
2019-02-11T05:18:49.319Z,6.00
2019-02-11T05:23:54.753Z,6.00
2019-02-11T05:29:00.103Z,6.00
2019-02-11T05:34:05.463Z,6.00
2019-02-11T05:39:10.798Z,6.00
2019-02-11T05:44:16.121Z,5.90
2019-02-11T05:49:21.509Z,5.70
2019-02-11T05:54:26.913Z,5.60
2019-02-11T05:59:32.253Z,5.40
2019-02-11T06:04:37.588Z,5.30
2019-02-11T06:09:42.946Z,5.20
2019-02-11T06:14:48.337Z,5.10
2019-02-11T06:19:53.662Z,5.10
2019-02-11T06:24:59.116Z,5.00
2019-02-11T06:30:04.896Z,5.00
2019-02-11T06:35:10.483Z,4.90
2019-02-11T06:40:15.802Z,4.80
2019-02-11T06:45:21.290Z,4.70
2019-02-11T06:50:26.636Z,4.80
2019-02-11T06:55:31.917Z,5.00
2019-02-11T07:00:37.412Z,5.20
2019-02-11T07:05:42.794Z,5.30
2019-02-11T07:10:55.476Z,5.40
2019-02-11T07:15:55.374Z,5.50
2019-02-11T07:21:00.882Z,5.60
2019-02-11T07:26:06.173Z,5.70
2019-02-11T07:31:11.526Z,5.70
2019-02-11T07:36:18.063Z,5.70
2019-02-11T07:41:29.989Z,5.80
2019-02-11T07:46:42.055Z,5.80
2019-02-11T07:51:47.437Z,5.90
2019-02-11T07:56:52.837Z,5.90
2019-02-11T08:01:58.175Z,6.00
2019-02-11T08:07:03.510Z,6.10
2019-02-11T08:12:08.843Z,6.10
2019-02-11T08:17:14.253Z,6.20
2019-02-11T08:22:19.596Z,6.30
2019-02-11T08:27:24.951Z,6.50
2019-02-11T08:32:30.282Z,6.40
2019-02-11T08:37:35.697Z,9.00
2019-02-11T08:42:41.131Z,13.10
2019-02-11T08:47:46.636Z,16.40
2019-02-11T08:52:52.032Z,15.70
2019-02-11T08:57:57.385Z,14.20
2019-02-11T09:03:02.861Z,12.50
2019-02-11T09:08:08.264Z,11.10
2019-02-11T09:13:13.719Z,10.10
2019-02-11T09:18:20.771Z,9.40
2019-02-11T09:23:26.150Z,9.20
2019-02-11T09:28:31.446Z,8.90
2019-02-11T09:33:36.812Z,8.80
2019-02-11T09:38:42.153Z,8.80
2019-02-11T09:43:47.550Z,8.60
2019-02-11T09:48:53.189Z,8.50
2019-02-11T09:53:58.589Z,8.90
2019-02-11T09:59:04.051Z,9.10
2019-02-11T10:04:09.485Z,9.70
2019-02-11T10:09:14.891Z,10.30
2019-02-11T10:14:20.215Z,10.90
2019-02-11T10:19:25.613Z,10.90
2019-02-11T10:24:30.969Z,10.40
2019-02-11T10:29:36.260Z,9.90
2019-02-11T10:34:41.732Z,9.60
2019-02-11T10:39:47.232Z,9.60
2019-02-11T10:44:52.611Z,10.00
2019-02-11T10:49:58.065Z,10.50
2019-02-11T10:55:03.455Z,10.60
2019-02-11T11:00:12.430Z,10.40
2019-02-11T11:05:18.027Z,10.30
2019-02-11T11:10:33.070Z,10.30
2019-02-11T11:15:38.422Z,10.20
2019-02-11T11:20:43.931Z,10.30
2019-02-11T11:25:49.230Z,10.60
2019-02-11T11:30:54.835Z,10.90
2019-02-11T11:36:00.253Z,10.80
2019-02-11T11:41:07.326Z,10.70
2019-02-11T11:46:12.609Z,10.60
2019-02-11T11:51:17.906Z,10.60
2019-02-11T11:56:23.384Z,10.50
2019-02-11T12:01:28.854Z,10.50
2019-02-11T12:06:34.257Z,10.40
2019-02-11T12:11:40.001Z,10.20
2019-02-11T12:16:56.085Z,10.10
2019-02-11T12:21:52.432Z,10.00
2019-02-11T12:26:57.773Z,9.80
2019-02-11T12:32:03.061Z,9.60
2019-02-11T12:37:09.893Z,9.30
2019-02-11T12:42:15.491Z,9.00
2019-02-11T12:47:20.997Z,8.80
2019-02-11T12:52:26.339Z,8.70
2019-02-11T12:57:31.739Z,8.50
2019-02-11T13:02:37.155Z,8.60
2019-02-11T13:07:42.527Z,9.10
2019-02-11T13:12:48.069Z,9.30
2019-02-11T13:17:53.704Z,9.50
2019-02-11T13:22:59.240Z,9.80
2019-02-11T13:28:04.622Z,10.10
2019-02-11T13:33:10.030Z,9.80
2019-02-11T13:38:15.441Z,9.60
2019-02-11T13:43:20.974Z,9.50
2019-02-11T13:48:26.296Z,9.30
2019-02-11T13:53:31.685Z,9.10
2019-02-11T13:58:37.229Z,9.00
2019-02-11T14:03:42.668Z,9.10
2019-02-11T14:08:47.977Z,9.20
2019-02-11T14:14:02.737Z,9.40
2019-02-11T14:19:01.115Z,9.50
2019-02-11T14:24:06.599Z,9.60
2019-02-11T14:29:12.087Z,9.70
2019-02-11T14:34:17.508Z,9.60
2019-02-11T14:39:22.942Z,9.40
2019-02-11T14:44:28.318Z,9.30
2019-02-11T14:49:33.974Z,9.10
2019-02-11T14:54:39.352Z,9.00
2019-02-11T14:59:44.747Z,8.80
2019-02-11T15:04:50.312Z,8.70
2019-02-11T15:09:55.732Z,8.60
2019-02-11T15:15:01.007Z,8.50
2019-02-11T15:20:08.170Z,8.40
2019-02-11T15:25:15.670Z,8.40
2019-02-11T15:30:21.428Z,8.30
2019-02-11T15:35:26.952Z,8.20
2019-02-11T15:40:32.296Z,8.00
2019-02-11T15:45:37.735Z,7.70
2019-02-11T15:50:43.173Z,7.50
2019-02-11T15:55:48.549Z,7.30
2019-02-11T16:00:54.054Z,7.10
2019-02-11T16:06:06.528Z,6.80
2019-02-11T16:11:07.134Z,6.60
2019-02-11T16:16:12.492Z,6.50
2019-02-11T16:21:17.870Z,6.30
2019-02-11T16:26:23.194Z,6.10
2019-02-11T16:31:28.637Z,6.00
2019-02-11T16:36:34.066Z,5.80
2019-02-11T16:41:39.792Z,5.70
2019-02-11T16:46:45.221Z,5.60
2019-02-11T16:51:50.729Z,5.50
2019-02-11T16:56:56.063Z,5.40
2019-02-11T17:02:01.548Z,5.30
2019-02-11T17:07:07.033Z,5.20
2019-02-11T17:12:12.440Z,5.10
2019-02-11T17:17:17.857Z,5.00
2019-02-11T17:22:23.237Z,5.00
2019-02-11T17:27:28.619Z,4.90
2019-02-11T17:32:33.980Z,4.90
2019-02-11T17:37:39.372Z,4.80
2019-02-11T17:42:44.898Z,4.80
2019-02-11T17:47:50.292Z,4.80
2019-02-11T17:52:56.745Z,4.70
2019-02-11T17:58:02.222Z,4.70
2019-02-11T18:03:07.543Z,4.60
2019-02-11T18:08:13.129Z,4.60
2019-02-11T18:13:18.472Z,4.50
2019-02-11T18:18:23.786Z,4.50
2019-02-11T18:23:29.147Z,4.40
2019-02-11T18:28:34.740Z,4.30
2019-02-11T18:33:40.300Z,4.30
2019-02-11T18:38:45.764Z,4.30
2019-02-11T18:43:51.423Z,4.20
2019-02-11T18:48:57.120Z,4.20
2019-02-11T18:54:02.676Z,4.20
2019-02-11T18:59:08.219Z,4.10
2019-02-11T19:04:15.536Z,4.00
2019-02-11T19:09:21.377Z,4.00
2019-02-11T19:14:27.030Z,3.90
2019-02-11T19:19:32.580Z,3.90
2019-02-11T19:24:38.260Z,3.80
2019-02-11T19:29:43.900Z,3.70
2019-02-11T19:34:49.444Z,3.60
2019-02-11T19:39:55.406Z,3.50
2019-02-11T19:45:01.176Z,3.50
2019-02-11T19:50:08.312Z,3.40
2019-02-11T19:55:14.124Z,3.30
2019-02-11T20:00:20.860Z,3.20
2019-02-11T20:05:26.374Z,3.20
2019-02-11T20:10:31.992Z,3.20
2019-02-11T20:15:37.422Z,3.10
2019-02-11T20:20:42.833Z,3.00
2019-02-11T20:25:48.405Z,3.00
2019-02-11T20:30:54.044Z,3.00
2019-02-11T20:35:59.591Z,3.00
2019-02-11T20:41:05.092Z,2.90
2019-02-11T20:46:10.440Z,2.90
2019-02-11T20:51:15.953Z,2.90
2019-02-11T20:56:21.528Z,2.80
2019-02-11T21:01:27.308Z,2.80
2019-02-11T21:06:32.990Z,2.80
2019-02-11T21:11:38.352Z,2.80
2019-02-11T21:16:43.782Z,2.80
2019-02-11T21:21:49.540Z,2.80
2019-02-11T21:26:54.959Z,2.80
2019-02-11T21:32:00.581Z,2.80
2019-02-11T21:37:06.142Z,2.70
2019-02-11T21:42:11.822Z,2.70
2019-02-11T21:47:17.253Z,2.70
2019-02-11T21:52:22.686Z,2.70
2019-02-11T21:57:28.286Z,2.60
2019-02-11T22:02:33.925Z,2.50
2019-02-11T22:07:39.593Z,2.50
2019-02-11T22:12:45.135Z,2.40
2019-02-11T22:17:50.728Z,2.40
2019-02-11T22:22:56.329Z,2.40
2019-02-11T22:28:01.820Z,2.30
2019-02-11T22:33:07.476Z,2.30
2019-02-11T22:38:12.940Z,2.20
2019-02-11T22:43:18.420Z,2.20
2019-02-11T22:48:23.967Z,2.20
2019-02-11T22:53:29.441Z,2.20
2019-02-11T22:58:34.754Z,2.30
2019-02-11T23:03:40.197Z,2.40
2019-02-11T23:08:45.473Z,2.60
2019-02-11T23:13:50.788Z,2.70
2019-02-11T23:18:56.416Z,2.90
2019-02-11T23:24:01.966Z,3.00
2019-02-11T23:29:07.340Z,3.20
2019-02-11T23:34:12.737Z,3.30
2019-02-11T23:39:18.269Z,3.30
2019-02-11T23:44:23.718Z,3.40
2019-02-11T23:49:29.212Z,3.30
2019-02-11T23:54:34.678Z,3.40
2019-02-11T23:59:40.256Z,3.30
